Time;durP1;ratioP1;P1;durP2;ratioP2;P2;SDS_P1;SDS_P2;PMS_P1;PMS_P2;Temp;Humidity;BMP_temperature;BMP_pressure;BME280_temperature;BME280_humidity;BME280_pressure;Samples;Min_cycle;Max_cycle;Signal;HPM_P1;HPM_P2
2024/04/17 00:00:12;;;;;;;11.35;1.25;;;5.90;99.90;;;;;;5371310;26;19996;-37
2024/04/17 00:02:37;;;;;;;9.77;1.25;;;5.80;99.90;;;;;;5370107;26;20011;-41
2024/04/17 00:05:03;;;;;;;9.75;1.05;;;5.80;99.90;;;;;;5372190;26;19992;-37
2024/04/17 00:07:29;;;;;;;13.35;1.02;;;5.80;99.90;;;;;;5368845;26;20028;-40
2024/04/17 00:09:54;;;;;;;9.85;0.90;;;5.80;99.90;;;;;;5371284;26;20015;-38
2024/04/17 00:12:21;;;;;;;5.15;0.80;;;5.70;99.90;;;;;;5372966;26;20004;-39
2024/04/17 00:14:47;;;;;;;14.63;1.00;;;5.70;99.90;;;;;;5372779;26;20996;-36
2024/04/17 00:17:12;;;;;;;10.93;0.75;;;5.60;99.90;;;;;;5370700;26;20085;-37
2024/04/17 00:19:38;;;;;;;5.35;0.57;;;5.60;99.90;;;;;;5370495;26;20499;-39
2024/04/17 00:22:03;;;;;;;6.55;0.77;;;5.60;99.90;;;;;;5372723;26;20347;-37
2024/04/17 00:24:29;;;;;;;8.25;0.60;;;5.60;99.90;;;;;;5371988;26;20016;-38
2024/04/17 00:26:55;;;;;;;10.30;0.90;;;5.60;99.90;;;;;;5369940;26;20067;-37
2024/04/17 00:29:21;;;;;;;6.10;0.75;;;5.50;99.90;;;;;;5372099;26;20024;-38
2024/04/17 00:31:46;;;;;;;9.45;0.55;;;5.50;99.90;;;;;;5367197;26;20011;-37
2024/04/17 00:34:12;;;;;;;8.82;0.85;;;5.50;99.90;;;;;;5370847;26;20007;-41
2024/04/17 00:36:38;;;;;;;26.77;1.98;;;5.50;99.90;;;;;;5371231;26;19997;-41
2024/04/17 00:39:03;;;;;;;9.95;0.68;;;5.50;99.90;;;;;;5372482;26;19996;-38
2024/04/17 00:41:29;;;;;;;10.50;1.40;;;5.50;99.90;;;;;;5369421;26;20336;-38
2024/04/17 00:43:55;;;;;;;8.68;0.93;;;5.40;99.90;;;;;;5371094;26;20456;-38
2024/04/17 00:46:20;;;;;;;13.63;0.88;;;5.40;99.90;;;;;;5370499;26;20053;-41
2024/04/17 00:48:46;;;;;;;6.15;0.70;;;5.40;99.90;;;;;;5370305;26;19997;-37
2024/04/17 00:51:12;;;;;;;9.07;0.80;;;5.30;99.90;;;;;;5371976;26;20073;-36
2024/04/17 00:53:37;;;;;;;12.63;1.05;;;5.30;99.90;;;;;;5371071;26;20011;-43
2024/04/17 00:56:03;;;;;;;11.07;0.65;;;5.30;99.90;;;;;;5372261;26;20053;-39
2024/04/17 00:58:29;;;;;;;14.50;1.20;;;5.20;99.90;;;;;;5361093;26;20008;-40
2024/04/17 01:00:55;;;;;;;15.35;1.00;;;5.20;99.90;;;;;;5371721;26;20008;-37
2024/04/17 01:03:20;;;;;;;10.18;0.70;;;5.20;99.90;;;;;;5337719;26;20000;-37
2024/04/17 01:05:46;;;;;;;6.75;0.70;;;5.20;99.90;;;;;;5396219;20;20024;-36
2024/04/17 01:08:13;;;;;;;8.48;0.88;;;5.20;99.90;;;;;;5300309;26;20024;-45
2024/04/17 01:10:38;;;;;;;11.30;1.00;;;5.10;99.90;;;;;;5322449;26;20471;-38
2024/04/17 01:13:04;;;;;;;12.73;0.90;;;5.10;99.90;;;;;;5324564;26;20002;-42
2024/04/17 01:15:29;;;;;;;17.73;1.05;;;5.10;99.90;;;;;;5303092;26;20002;-36
2024/04/17 01:17:57;;;;;;;8.65;0.70;;;5.10;99.90;;;;;;5302560;26;20369;-36
2024/04/17 01:20:23;;;;;;;9.20;0.60;;;5.00;99.90;;;;;;5312146;26;20013;-41
2024/04/17 01:22:48;;;;;;;15.48;0.90;;;5.00;99.90;;;;;;5311420;26;20080;-37
2024/04/17 01:25:14;;;;;;;7.85;0.75;;;5.00;99.90;;;;;;5300166;26;20012;-36
2024/04/17 01:27:40;;;;;;;11.98;0.95;;;5.00;99.90;;;;;;5300824;26;20009;-38
2024/04/17 01:30:07;;;;;;;7.70;1.15;;;5.00;99.90;;;;;;5302180;26;20071;-36
2024/04/17 01:32:32;;;;;;;9.30;1.58;;;5.00;99.90;;;;;;5304591;26;20012;-40
2024/04/17 01:34:58;;;;;;;12.50;0.90;;;5.00;99.90;;;;;;5311505;26;19998;-39
2024/04/17 01:37:23;;;;;;;6.90;0.80;;;5.00;99.90;;;;;;5301697;26;20052;-37
2024/04/17 01:39:49;;;;;;;10.02;2.42;;;4.90;99.90;;;;;;5297654;26;19998;-36
2024/04/17 01:42:14;;;;;;;7.63;0.80;;;4.90;99.90;;;;;;5298229;26;20015;-38
2024/04/17 01:44:40;;;;;;;11.90;1.08;;;4.90;99.90;;;;;;5303960;26;20011;-37
2024/04/17 01:47:05;;;;;;;10.30;0.80;;;4.90;99.90;;;;;;5301922;26;20001;-37
2024/04/17 01:49:31;;;;;;;7.63;0.73;;;4.90;99.90;;;;;;5310760;26;20020;-37
2024/04/17 01:51:56;;;;;;;14.13;0.80;;;4.80;99.90;;;;;;5296550;26;20006;-42
2024/04/17 01:54:22;;;;;;;7.57;1.10;;;4.90;99.90;;;;;;5302154;26;20020;-41
2024/04/17 01:56:51;;;;;;;17.60;1.38;;;4.80;99.90;;;;;;5312203;26;20005;-37
2024/04/17 01:59:17;;;;;;;7.90;0.55;;;4.80;99.90;;;;;;5304163;26;20071;-36
2024/04/17 02:01:42;;;;;;;7.90;0.70;;;4.80;99.90;;;;;;5307356;26;20009;-38
2024/04/17 02:04:08;;;;;;;12.82;1.00;;;4.80;99.90;;;;;;5300879;26;20013;-39
2024/04/17 02:06:33;;;;;;;16.35;1.33;;;4.80;99.90;;;;;;5317249;26;20005;-39
2024/04/17 02:08:59;;;;;;;11.40;1.42;;;4.80;99.90;;;;;;5306768;26;20001;-37
2024/04/17 02:11:24;;;;;;;15.57;1.20;;;4.80;99.90;;;;;;5295032;26;20002;-36
2024/04/17 02:13:50;;;;;;;14.85;2.15;;;4.80;99.90;;;;;;5314518;26;20471;-38
2024/04/17 02:16:15;;;;;;;13.88;1.20;;;4.80;99.90;;;;;;5302395;26;19997;-37
2024/04/17 02:18:41;;;;;;;6.40;1.00;;;4.90;99.90;;;;;;5300455;26;20472;-44
2024/04/17 02:21:06;;;;;;;13.30;1.17;;;4.90;99.90;;;;;;5309529;26;20372;-42
2024/04/17 02:23:32;;;;;;;8.98;1.73;;;4.90;99.90;;;;;;5294448;26;19994;-36
2024/04/17 02:25:57;;;;;;;16.27;1.30;;;4.80;99.90;;;;;;5300726;26;20002;-41
2024/04/17 02:28:23;;;;;;;16.13;1.05;;;4.90;99.90;;;;;;5307185;26;20070;-37
2024/04/17 02:30:49;;;;;;;5.38;1.10;;;4.80;99.90;;;;;;5302020;26;19997;-36
2024/04/17 02:33:14;;;;;;;13.25;0.80;;;4.80;99.90;;;;;;5316623;26;20012;-39
2024/04/17 02:35:40;;;;;;;7.25;0.98;;;4.80;99.90;;;;;;5304025;26;19998;-36
2024/04/17 02:38:05;;;;;;;11.00;1.23;;;4.80;99.90;;;;;;5315696;26;20044;-40
2024/04/17 02:40:31;;;;;;;9.80;1.13;;;4.80;99.90;;;;;;5304107;26;19998;-37
2024/04/17 02:42:56;;;;;;;15.77;2.08;;;4.80;99.90;;;;;;5308111;26;20021;-37
2024/04/17 02:45:22;;;;;;;10.95;1.73;;;4.90;99.90;;;;;;5304818;26;19998;-38
2024/04/17 02:47:47;;;;;;;16.05;1.58;;;4.90;99.90;;;;;;5304827;26;20456;-37
2024/04/17 02:50:13;;;;;;;7.53;1.20;;;5.00;99.90;;;;;;5321808;26;20008;-39
2024/04/17 02:52:38;;;;;;;16.88;1.52;;;5.00;99.90;;;;;;5312929;26;20096;-38
2024/04/17 02:55:04;;;;;;;6.22;0.80;;;5.00;99.90;;;;;;5305666;26;20025;-36
2024/04/17 02:57:30;;;;;;;9.90;1.20;;;5.10;99.90;;;;;;5297274;26;20016;-38
2024/04/17 02:59:55;;;;;;;7.45;0.80;;;5.10;99.90;;;;;;5303730;26;20016;-36
2024/04/17 03:02:21;;;;;;;7.43;1.02;;;5.10;99.90;;;;;;5304776;26;20086;-39
2024/04/17 03:04:46;;;;;;;5.07;0.70;;;5.20;99.90;;;;;;5308022;26;20530;-35
2024/04/17 03:07:12;;;;;;;12.90;1.95;;;5.20;99.90;;;;;;5304310;26;20005;-36
2024/04/17 03:09:37;;;;;;;7.60;0.98;;;5.20;99.90;;;;;;5310867;26;20002;-43
2024/04/17 03:12:03;;;;;;;11.25;1.30;;;5.20;99.90;;;;;;5322429;26;20016;-37
2024/04/17 03:14:29;;;;;;;5.50;0.75;;;5.30;99.90;;;;;;5315699;26;20551;-41
2024/04/17 03:16:54;;;;;;;11.57;1.98;;;5.30;99.90;;;;;;5311998;26;20020;-36
2024/04/17 03:19:20;;;;;;;5.13;0.73;;;5.30;99.90;;;;;;5330391;26;20005;-39
2024/04/17 03:21:46;;;;;;;6.18;0.93;;;5.30;99.90;;;;;;5301702;26;20323;-37
2024/04/17 03:24:11;;;;;;;10.10;1.10;;;5.30;99.90;;;;;;5304258;26;19998;-39
2024/04/17 03:26:37;;;;;;;3.03;0.55;;;5.30;99.90;;;;;;5319195;26;20000;-40
2024/04/17 03:29:02;;;;;;;4.75;0.82;;;5.40;99.90;;;;;;5304886;26;20005;-37
2024/04/17 03:31:28;;;;;;;8.05;0.82;;;5.40;99.90;;;;;;5315078;26;20578;-36
2024/04/17 03:33:53;;;;;;;7.43;0.75;;;5.40;99.90;;;;;;5303455;26;20775;-40
2024/04/17 03:36:19;;;;;;;4.57;0.60;;;5.40;99.90;;;;;;5330512;26;20053;-36
2024/04/17 03:38:44;;;;;;;8.35;0.70;;;5.40;99.90;;;;;;5313548;26;20080;-36
2024/04/17 03:41:10;;;;;;;7.30;0.70;;;5.50;99.90;;;;;;5313304;26;20006;-40
2024/04/17 03:43:35;;;;;;;4.47;0.63;;;5.50;99.90;;;;;;5305237;26;19997;-39
2024/04/17 03:46:04;;;;;;;8.13;1.38;;;5.50;99.90;;;;;;5337822;26;19993;-39
2024/04/17 03:48:31;;;;;;;8.18;0.70;;;5.60;99.90;;;;;;5303935;26;20002;-36
2024/04/17 03:50:56;;;;;;;7.85;0.95;;;5.60;99.90;;;;;;5304917;26;20358;-37
2024/04/17 03:53:22;;;;;;;6.20;0.88;;;5.60;99.90;;;;;;5320271;26;20332;-37
2024/04/17 03:55:47;;;;;;;6.97;0.52;;;5.70;99.90;;;;;;5319336;26;20441;-42
2024/04/17 03:58:13;;;;;;;6.38;0.40;;;5.70;99.90;;;;;;5304476;26;20017;-37
2024/04/17 04:00:39;;;;;;;5.63;0.60;;;5.70;99.90;;;;;;5307379;26;19997;-38
2024/04/17 04:03:05;;;;;;;5.65;0.55;;;5.70;99.90;;;;;;5299402;26;20017;-37
2024/04/17 04:05:30;;;;;;;5.00;0.70;;;5.80;99.90;;;;;;5319510;26;20448;-36
2024/04/17 04:07:56;;;;;;;14.32;1.27;;;5.80;99.90;;;;;;5314214;26;20641;-41
2024/04/17 04:10:21;;;;;;;4.50;1.58;;;5.80;99.90;;;;;;5317939;26;20005;-42
2024/04/17 04:12:47;;;;;;;12.30;1.80;;;5.80;99.90;;;;;;5303850;26;20001;-37
2024/04/17 04:15:12;;;;;;;6.57;0.95;;;5.80;99.90;;;;;;5309538;26;20005;-36
2024/04/17 04:17:38;;;;;;;6.15;0.93;;;5.80;99.90;;;;;;5311329;26;20605;-37
2024/04/17 04:20:04;;;;;;;4.22;0.98;;;5.90;99.90;;;;;;5315582;26;20012;-43
2024/04/17 04:22:29;;;;;;;4.22;0.70;;;5.80;99.90;;;;;;5303407;26;20002;-37
2024/04/17 04:24:55;;;;;;;9.88;0.60;;;5.90;99.90;;;;;;5333318;26;20045;-38
2024/04/17 04:27:20;;;;;;;5.05;1.02;;;5.90;99.90;;;;;;5308723;26;20002;-38
2024/04/17 04:29:46;;;;;;;3.65;0.50;;;5.90;99.90;;;;;;5309052;26;20001;-37
2024/04/17 04:32:11;;;;;;;4.28;0.73;;;5.90;99.90;;;;;;5309710;26;20004;-36
2024/04/17 04:34:37;;;;;;;3.08;0.68;;;5.90;99.90;;;;;;5332450;26;20059;-41
2024/04/17 04:37:02;;;;;;;4.82;0.50;;;5.90;99.90;;;;;;5309147;26;20787;-36
2024/04/17 04:39:28;;;;;;;7.45;1.17;;;5.90;99.90;;;;;;5304886;26;20409;-38
2024/04/17 04:41:54;;;;;;;2.90;0.88;;;5.90;99.90;;;;;;5305769;26;20436;-37
2024/04/17 04:44:19;;;;;;;5.47;1.80;;;5.90;99.90;;;;;;5307366;26;19994;-40
2024/04/17 04:46:46;;;;;;;3.78;1.40;;;6.00;99.90;;;;;;5332313;26;20053;-38
2024/04/17 04:49:11;;;;;;;5.15;1.48;;;6.00;99.90;;;;;;5305366;26;20568;-37
2024/04/17 04:51:37;;;;;;;4.78;1.77;;;6.00;99.90;;;;;;5336425;26;19993;-39
2024/04/17 04:54:02;;;;;;;7.57;2.45;;;6.00;99.90;;;;;;5314902;26;20033;-36
2024/04/17 04:56:28;;;;;;;10.57;2.90;;;6.00;99.90;;;;;;5316494;26;20439;-38
2024/04/17 04:58:54;;;;;;;9.85;2.90;;;6.00;99.90;;;;;;5302424;26;20452;-37
2024/04/17 05:01:20;;;;;;;7.20;3.72;;;6.00;99.90;;;;;;5303001;26;20005;-39
2024/04/17 05:03:46;;;;;;;12.38;4.07;;;6.00;99.90;;;;;;5324565;26;20011;-37
2024/04/17 05:06:11;;;;;;;5.88;3.53;;;6.00;99.90;;;;;;5313640;26;20001;-42
2024/04/17 05:08:37;;;;;;;6.68;2.83;;;6.10;99.90;;;;;;5314105;26;20005;-39
2024/04/17 05:11:02;;;;;;;7.15;3.17;;;6.00;99.90;;;;;;5304433;26;20033;-37
2024/04/17 05:13:28;;;;;;;3.97;2.55;;;6.00;99.90;;;;;;5331700;26;20001;-39
2024/04/17 05:15:53;;;;;;;9.45;2.30;;;6.10;99.90;;;;;;5303444;26;20001;-37
2024/04/17 05:18:19;;;;;;;10.27;2.55;;;6.10;99.90;;;;;;5312150;26;19998;-40
2024/04/17 05:20:45;;;;;;;3.95;2.08;;;6.10;99.90;;;;;;5303632;26;19994;-37
2024/04/17 05:23:11;;;;;;;9.20;2.30;;;6.10;99.90;;;;;;5302761;26;19998;-38
2024/04/17 05:25:37;;;;;;;6.22;1.80;;;6.10;99.90;;;;;;5302888;26;20077;-43
2024/04/17 05:28:02;;;;;;;7.20;1.70;;;6.10;99.90;;;;;;5324698;26;20002;-40
2024/04/17 05:30:28;;;;;;;8.88;1.95;;;6.10;99.90;;;;;;5298012;26;20005;-38
2024/04/17 05:32:54;;;;;;;4.60;1.45;;;6.10;99.90;;;;;;5299601;26;20013;-38
2024/04/17 05:35:19;;;;;;;4.47;1.10;;;6.10;99.90;;;;;;5308394;26;20004;-40
2024/04/17 05:37:45;;;;;;;5.20;1.92;;;6.10;99.90;;;;;;5335041;26;20016;-37
2024/04/17 05:40:10;;;;;;;11.05;1.13;;;6.10;99.90;;;;;;5303209;26;20482;-38
2024/04/17 05:42:36;;;;;;;5.15;1.17;;;6.10;99.90;;;;;;5314781;26;20006;-41
2024/04/17 05:45:02;;;;;;;7.20;2.08;;;6.20;99.90;;;;;;5317990;26;20026;-46
2024/04/17 05:47:27;;;;;;;4.55;0.70;;;6.10;99.90;;;;;;5323928;26;20001;-37
2024/04/17 05:49:53;;;;;;;3.47;0.70;;;6.20;99.90;;;;;;5295962;26;20001;-37
2024/04/17 05:52:20;;;;;;;2.47;1.27;;;6.20;99.90;;;;;;5302609;26;19998;-45
2024/04/17 05:54:45;;;;;;;5.50;0.60;;;6.20;99.90;;;;;;5327204;26;20001;-38
2024/04/17 05:57:11;;;;;;;5.93;0.65;;;6.10;99.90;;;;;;5316781;26;20013;-38
2024/04/17 05:59:36;;;;;;;6.88;0.68;;;6.10;99.90;;;;;;5306070;26;20004;-43
2024/04/17 06:02:02;;;;;;;6.13;0.95;;;6.10;99.90;;;;;;5333382;26;19996;-44
2024/04/17 06:04:29;;;;;;;6.53;0.65;;;6.10;99.90;;;;;;5299626;26;20442;-37
2024/04/17 06:06:55;;;;;;;4.63;0.70;;;6.10;99.90;;;;;;5295659;26;20568;-42
2024/04/17 06:09:21;;;;;;;6.10;0.60;;;6.10;99.90;;;;;;5311493;26;20009;-37
2024/04/17 06:11:46;;;;;;;7.45;1.23;;;6.10;99.90;;;;;;5307659;26;20468;-40
2024/04/17 06:14:12;;;;;;;4.30;0.60;;;6.10;99.90;;;;;;5298432;26;20009;-37
2024/04/17 06:16:37;;;;;;;3.55;0.73;;;6.10;99.90;;;;;;5301756;26;20013;-43
2024/04/17 06:19:03;;;;;;;6.65;0.75;;;6.10;99.90;;;;;;5312107;26;19994;-39
2024/04/17 06:21:28;;;;;;;6.90;0.82;;;6.10;99.90;;;;;;5322653;26;20037;-38
2024/04/17 06:23:54;;;;;;;5.95;1.00;;;6.10;99.90;;;;;;5321458;26;19998;-38
2024/04/17 06:26:20;;;;;;;2.53;0.80;;;6.20;99.90;;;;;;5308980;26;20002;-37
2024/04/17 06:28:45;;;;;;;7.20;0.85;;;6.20;99.90;;;;;;5328479;26;20347;-46
2024/04/17 06:31:11;;;;;;;2.17;0.82;;;6.30;99.90;;;;;;5307456;26;20002;-37
2024/04/17 06:33:36;;;;;;;4.82;1.35;;;6.30;99.90;;;;;;5299309;26;20083;-43
2024/04/17 06:36:02;;;;;;;5.20;0.93;;;6.40;99.90;;;;;;5305990;26;20017;-37
2024/04/17 06:38:27;;;;;;;4.05;0.70;;;6.70;99.90;;;;;;5303687;26;20010;-36
2024/04/17 06:40:55;;;;;;;4.75;1.20;;;7.10;99.90;;;;;;5310191;26;20002;-46
2024/04/17 06:43:22;;;;;;;6.82;1.38;;;7.40;99.90;;;;;;5294087;26;20033;-41
2024/04/17 06:45:48;;;;;;;6.00;1.42;;;7.40;99.90;;;;;;5294911;26;20002;-37
2024/04/17 06:48:13;;;;;;;4.97;1.02;;;7.30;99.90;;;;;;5301546;26;20529;-38
2024/04/17 06:50:39;;;;;;;4.88;1.10;;;7.20;99.90;;;;;;5302156;26;20006;-37
2024/04/17 06:53:05;;;;;;;5.68;1.00;;;7.20;99.90;;;;;;5318035;26;20451;-38
2024/04/17 06:55:30;;;;;;;13.55;1.40;;;7.20;99.90;;;;;;5302138;26;20329;-40
2024/04/17 06:57:56;;;;;;;6.38;1.85;;;7.20;99.90;;;;;;5316730;26;20752;-40
2024/04/17 07:00:21;;;;;;;6.10;1.17;;;7.20;99.90;;;;;;5318857;26;20002;-40
2024/04/17 07:02:47;;;;;;;9.57;1.40;;;7.20;99.90;;;;;;5297462;26;20009;-37
2024/04/17 07:05:12;;;;;;;12.63;1.70;;;7.20;99.90;;;;;;5293292;26;20014;-38
2024/04/17 07:07:38;;;;;;;3.80;0.98;;;7.30;99.90;;;;;;5300497;26;20012;-39
2024/04/17 07:10:04;;;;;;;3.38;0.98;;;7.30;99.90;;;;;;5314602;26;20011;-39
2024/04/17 07:12:30;;;;;;;9.40;0.90;;;7.40;99.90;;;;;;5298813;26;20006;-39
2024/04/17 07:14:55;;;;;;;10.10;0.90;;;7.50;99.90;;;;;;5312867;26;20440;-42
2024/04/17 07:17:21;;;;;;;6.68;0.70;;;7.60;99.90;;;;;;5313135;26;20814;-38
2024/04/17 07:19:46;;;;;;;11.70;0.95;;;7.60;99.90;;;;;;5301162;26;20437;-37
2024/04/17 07:22:12;;;;;;;4.85;0.75;;;7.60;99.90;;;;;;5307908;26;19998;-39
2024/04/17 07:24:38;;;;;;;5.15;0.60;;;7.70;99.90;;;;;;5293652;26;20068;-39
2024/04/17 07:27:04;;;;;;;7.82;0.60;;;7.70;99.90;;;;;;5297033;26;20006;-39
2024/04/17 07:29:29;;;;;;;5.10;0.80;;;7.70;99.90;;;;;;5299381;26;19998;-39
2024/04/17 07:31:55;;;;;;;10.88;0.75;;;7.80;99.90;;;;;;5297661;26;20021;-44
2024/04/17 07:34:21;;;;;;;6.57;0.75;;;7.90;99.90;;;;;;5305557;26;20096;-38
2024/04/17 07:36:46;;;;;;;4.47;0.60;;;7.90;99.90;;;;;;5304055;26;20001;-37
2024/04/17 07:39:12;;;;;;;13.13;0.80;;;7.90;99.90;;;;;;5311917;26;20083;-39
2024/04/17 07:41:37;;;;;;;6.32;0.57;;;8.00;99.90;;;;;;5333658;26;20000;-40
2024/04/17 07:44:03;;;;;;;6.45;0.30;;;8.00;99.90;;;;;;5309619;26;20016;-37
2024/04/17 07:46:29;;;;;;;5.47;0.35;;;8.00;99.90;;;;;;5307797;26;20005;-39
2024/04/17 07:48:55;;;;;;;8.60;0.45;;;8.00;99.90;;;;;;5330612;26;20012;-37
2024/04/17 07:51:20;;;;;;;4.82;0.20;;;8.10;99.90;;;;;;5321587;26;20474;-37
2024/04/17 07:53:46;;;;;;;5.38;0.38;;;8.10;99.90;;;;;;5332407;26;20079;-37
2024/04/17 07:56:11;;;;;;;9.10;0.55;;;8.20;99.90;;;;;;5304753;26;20080;-37
2024/04/17 07:58:37;;;;;;;9.05;0.60;;;8.20;99.90;;;;;;5303908;26;20008;-39
2024/04/17 08:01:03;;;;;;;12.88;0.38;;;8.20;99.90;;;;;;5306662;26;20001;-35
2024/04/17 08:03:28;;;;;;;7.75;0.22;;;8.20;99.90;;;;;;5303935;26;20016;-36
2024/04/17 08:05:54;;;;;;;9.85;0.50;;;8.10;99.90;;;;;;5324646;26;20002;-35
2024/04/17 08:08:19;;;;;;;8.27;0.88;;;8.10;99.90;;;;;;5313733;26;20036;-37
2024/04/17 08:10:45;;;;;;;6.35;0.30;;;8.10;99.90;;;;;;5304093;26;20016;-34
2024/04/17 08:13:16;;;;;;;3.53;0.28;;;8.10;99.90;;;;;;5303716;26;20009;-36
2024/04/17 08:15:49;;;;;;;6.72;0.30;;;8.10;99.90;;;;;;5314112;26;20053;-37
2024/04/17 08:18:14;;;;;;;6.45;0.50;;;8.10;99.90;;;;;;5306189;26;20132;-34
2024/04/17 08:20:40;;;;;;;7.22;0.30;;;8.20;99.90;;;;;;5311413;26;20009;-35
2024/04/17 08:23:05;;;;;;;7.40;0.43;;;8.20;99.90;;;;;;5326486;26;20562;-34
2024/04/17 08:25:31;;;;;;;3.38;0.20;;;8.40;99.90;;;;;;5320808;26;20465;-35
2024/04/17 08:27:57;;;;;;;7.15;0.25;;;8.50;99.90;;;;;;5302989;26;20006;-34
2024/04/17 08:30:22;;;;;;;5.85;0.55;;;8.50;99.90;;;;;;5305949;26;20002;-33
2024/04/17 08:32:49;;;;;;;6.57;0.30;;;8.50;99.90;;;;;;5301297;26;20084;-33
2024/04/17 08:35:14;;;;;;;8.43;0.20;;;8.60;99.90;;;;;;5305864;26;20001;-37
2024/04/17 08:37:40;;;;;;;9.27;0.90;;;8.80;99.90;;;;;;5299076;26;20075;-34
2024/04/17 08:40:09;;;;;;;5.35;0.22;;;8.80;99.90;;;;;;5316386;26;20087;-34
2024/04/17 08:42:35;;;;;;;10.60;0.60;;;8.90;99.90;;;;;;5313296;26;20001;-36
2024/04/17 08:45:09;;;;;;;13.05;0.50;;;8.90;99.90;;;;;;5308472;26;19997;-36
2024/04/17 08:47:41;;;;;;;4.18;0.35;;;8.90;99.90;;;;;;5293558;26;20012;-36
2024/04/17 08:50:08;;;;;;;8.98;0.20;;;8.80;99.90;;;;;;5303795;26;20012;-40
2024/04/17 08:52:34;;;;;;;7.82;0.77;;;8.60;99.90;;;;;;5304406;26;20001;-34
2024/04/17 08:55:00;;;;;;;6.57;0.65;;;8.50;99.90;;;;;;5309642;26;19998;-35
2024/04/17 08:57:27;;;;;;;4.57;0.50;;;8.50;99.90;;;;;;5305555;26;20002;-34
2024/04/17 08:59:53;;;;;;;5.43;0.20;;;8.50;99.90;;;;;;5292511;26;20077;-36
2024/04/17 09:02:19;;;;;;;1.88;0.30;;;8.60;99.90;;;;;;5312909;26;20015;-35
2024/04/17 09:04:45;;;;;;;2.22;0.10;;;8.70;99.90;;;;;;5310222;26;20002;-34
2024/04/17 09:07:11;;;;;;;0.80;0.00;;;8.60;99.90;;;;;;5306568;26;20033;-35
2024/04/17 09:09:41;;;;;;;0.47;0.03;;;8.40;99.90;;;;;;5297567;26;20083;-38
2024/04/17 09:12:10;;;;;;;0.32;0.10;;;8.30;99.90;;;;;;5293821;26;19998;-39
2024/04/17 09:14:36;;;;;;;2.53;0.00;;;8.30;99.90;;;;;;5288896;26;20013;-34
2024/04/17 09:17:01;;;;;;;0.10;0.00;;;8.00;99.90;;;;;;5295840;26;20045;-36
2024/04/17 09:19:27;;;;;;;2.30;0.10;;;7.70;99.90;;;;;;5298120;26;20012;-35
2024/04/17 09:21:53;;;;;;;0.17;0.00;;;7.40;99.90;;;;;;5322890;26;19997;-35
2024/04/17 09:24:18;;;;;;;2.15;0.10;;;7.30;99.90;;;;;;5302197;26;20450;-34
2024/04/17 09:26:44;;;;;;;1.52;0.10;;;7.00;99.90;;;;;;5315017;26;20413;-37
2024/04/17 09:29:14;;;;;;;0.55;0.00;;;6.90;99.90;;;;;;5305737;26;20002;-35
2024/04/17 09:31:42;;;;;;;2.08;0.10;;;6.70;99.90;;;;;;5312182;26;20013;-34
2024/04/17 09:34:08;;;;;;;1.00;0.10;;;6.70;99.90;;;;;;5300353;26;20001;-34
2024/04/17 09:36:33;;;;;;;1.42;0.00;;;6.90;99.90;;;;;;5296600;26;20439;-35
2024/04/17 09:39:08;;;;;;;0.55;0.00;;;6.90;99.90;;;;;;5309768;26;20462;-34
2024/04/17 09:41:37;;;;;;;1.13;0.10;;;6.70;99.90;;;;;;5298818;26;20079;-38
2024/04/17 09:44:07;;;;;;;1.60;0.10;;;6.50;99.90;;;;;;5302479;26;20163;-35
2024/04/17 09:46:32;;;;;;;0.50;0.03;;;6.30;99.90;;;;;;5289282;26;20012;-35
2024/04/17 09:48:59;;;;;;;1.20;0.00;;;6.20;99.90;;;;;;5308602;26;20006;-35
2024/04/17 09:51:26;;;;;;;1.50;0.00;;;6.10;99.90;;;;;;5299883;26;20006;-35
2024/04/17 09:53:59;;;;;;;1.65;0.00;;;6.00;99.90;;;;;;5303845;26;20018;-35
2024/04/17 09:56:26;;;;;;;0.22;0.00;;;5.90;99.90;;;;;;5296623;26;20014;-37
2024/04/17 09:58:53;;;;;;;1.33;0.00;;;5.80;99.90;;;;;;5309441;26;20037;-37
2024/04/17 10:01:21;;;;;;;1.10;0.08;;;5.80;99.90;;;;;;5311547;26;20391;-34
2024/04/17 10:03:48;;;;;;;2.00;0.10;;;5.90;99.90;;;;;;5308439;26;20001;-34
2024/04/17 10:06:15;;;;;;;1.77;0.17;;;5.90;99.90;;;;;;5297080;26;20277;-36
2024/04/17 10:08:42;;;;;;;0.25;0.10;;;6.30;99.90;;;;;;5291641;26;20021;-37
2024/04/17 10:11:09;;;;;;;0.82;0.00;;;6.50;99.90;;;;;;5299338;26;20037;-35
2024/04/17 10:13:35;;;;;;;0.40;0.10;;;6.50;99.90;;;;;;5306234;26;20013;-34
2024/04/17 10:16:01;;;;;;;3.47;0.10;;;6.60;99.90;;;;;;5304865;26;20045;-35
2024/04/17 10:18:27;;;;;;;0.70;0.10;;;6.60;99.90;;;;;;5298822;26;20076;-34
2024/04/17 10:20:55;;;;;;;0.47;0.10;;;6.60;99.90;;;;;;5300946;26;20037;-35
2024/04/17 10:23:20;;;;;;;0.85;0.10;;;6.90;99.90;;;;;;5299855;26;20006;-35
2024/04/17 10:25:46;;;;;;;0.30;0.00;;;7.50;99.90;;;;;;5302754;26;20072;-34
2024/04/17 10:28:14;;;;;;;0.88;0.00;;;8.00;99.90;;;;;;5300528;26;20016;-34
2024/04/17 10:30:40;;;;;;;0.00;0.00;;;8.50;99.90;;;;;;5301094;26;20112;-35
2024/04/17 10:33:30;;;;;;;0.10;0.00;;;8.90;99.90;;;;;;5310451;26;20025;-34
2024/04/17 10:35:58;;;;;;;0.80;0.00;;;9.20;99.90;;;;;;5294951;26;20344;-35
2024/04/17 10:38:29;;;;;;;0.45;0.00;;;9.50;99.90;;;;;;5314607;26;20401;-34
2024/04/17 10:40:56;;;;;;;1.02;0.05;;;9.80;99.90;;;;;;5296604;26;20005;-37
2024/04/17 10:43:23;;;;;;;0.00;0.00;;;10.00;99.90;;;;;;5304191;26;20034;-34
2024/04/17 10:46:04;;;;;;;0.28;0.00;;;10.10;99.90;;;;;;5310999;26;20002;-34
2024/04/17 10:48:29;;;;;;;1.83;0.00;;;10.00;99.90;;;;;;5300803;26;20014;-38
2024/04/17 10:50:55;;;;;;;0.00;0.00;;;9.60;99.90;;;;;;5307902;26;20073;-34
2024/04/17 10:53:21;;;;;;;0.10;0.00;;;9.50;99.90;;;;;;5305159;26;20005;-34
2024/04/17 10:55:50;;;;;;;0.10;0.00;;;9.70;99.90;;;;;;5307947;26;20074;-35
2024/04/17 10:58:17;;;;;;;0.65;0.47;;;9.90;99.90;;;;;;5313421;26;20001;-37
2024/04/17 11:00:43;;;;;;;1.17;0.55;;;9.80;99.90;;;;;;5301256;26;20019;-35
2024/04/17 11:03:12;;;;;;;1.27;0.00;;;9.70;99.90;;;;;;5316363;26;20471;-35
2024/04/17 11:05:37;;;;;;;0.73;0.00;;;9.50;99.90;;;;;;5320703;26;20017;-38
2024/04/17 11:08:03;;;;;;;1.20;0.03;;;9.40;99.90;;;;;;5316053;26;20016;-36
2024/04/17 11:10:29;;;;;;;1.75;0.00;;;9.30;99.90;;;;;;5304390;26;20533;-34
2024/04/17 11:12:54;;;;;;;1.25;0.10;;;9.30;99.90;;;;;;5319256;26;20460;-37
2024/04/17 11:15:20;;;;;;;0.77;0.10;;;9.20;99.90;;;;;;5304264;26;20006;-35
2024/04/17 11:17:46;;;;;;;0.25;0.00;;;9.20;99.90;;;;;;5314427;26;20017;-37
2024/04/17 11:20:13;;;;;;;2.90;0.30;;;9.30;99.90;;;;;;5315550;26;20020;-34
2024/04/17 11:22:39;;;;;;;0.70;0.00;;;9.30;99.90;;;;;;5307334;26;20001;-36
2024/04/17 11:25:11;;;;;;;2.60;0.10;;;9.50;99.90;;;;;;5330227;26;20079;-34
2024/04/17 11:27:37;;;;;;;1.48;0.10;;;9.70;99.90;;;;;;5328925;26;20015;-36
2024/04/17 11:30:03;;;;;;;0.40;0.00;;;10.00;99.90;;;;;;5305542;26;20014;-33
2024/04/17 11:32:28;;;;;;;0.52;0.10;;;10.30;99.90;;;;;;5306580;26;20009;-37
2024/04/17 11:34:55;;;;;;;1.20;0.28;;;10.40;99.90;;;;;;5312500;26;20009;-32
2024/04/17 11:37:21;;;;;;;1.02;0.10;;;10.40;99.90;;;;;;5303932;26;20006;-34
2024/04/17 11:39:47;;;;;;;3.05;0.13;;;10.60;99.90;;;;;;5313924;26;20019;-34
2024/04/17 11:42:12;;;;;;;1.50;0.10;;;10.70;99.90;;;;;;5304697;26;20033;-34
2024/04/17 11:44:42;;;;;;;0.90;0.10;;;10.80;99.90;;;;;;5302136;26;20005;-35
2024/04/17 11:47:10;;;;;;;0.65;0.10;;;10.90;99.90;;;;;;5301810;26;20464;-34
2024/04/17 11:49:36;;;;;;;1.55;0.10;;;10.90;99.90;;;;;;5311702;26;20083;-34
2024/04/17 11:52:10;;;;;;;1.25;0.30;;;11.10;99.90;;;;;;5324919;26;20460;-35
2024/04/17 11:54:36;;;;;;;3.28;0.20;;;11.20;99.10;;;;;;5302313;26;20017;-34
2024/04/17 11:57:02;;;;;;;2.35;0.20;;;11.10;99.30;;;;;;5328559;26;20005;-37
2024/04/17 11:59:27;;;;;;;1.30;0.20;;;11.00;99.20;;;;;;5319344;26;20479;-33
2024/04/17 12:01:53;;;;;;;1.40;0.15;;;10.80;99.20;;;;;;5319442;26;20040;-32
2024/04/17 12:04:19;;;;;;;0.93;0.10;;;10.70;99.30;;;;;;5309840;26;20012;-36
2024/04/17 12:06:46;;;;;;;2.80;0.20;;;10.50;99.50;;;;;;5334678;26;20000;-35
2024/04/17 12:09:12;;;;;;;1.65;0.20;;;10.40;99.90;;;;;;5304101;26;20001;-33
2024/04/17 12:11:37;;;;;;;0.70;0.17;;;10.20;99.90;;;;;;5303466;26;20447;-35
2024/04/17 12:14:03;;;;;;;0.30;0.10;;;10.10;99.90;;;;;;5315032;26;20758;-34
2024/04/17 12:16:28;;;;;;;1.33;0.20;;;10.00;99.90;;;;;;5311600;26;20420;-33
2024/04/17 12:18:54;;;;;;;1.33;0.47;;;9.90;99.90;;;;;;5313547;26;20013;-33
2024/04/17 12:21:19;;;;;;;0.85;0.30;;;9.90;99.90;;;;;;5303694;26;20016;-32
2024/04/17 12:23:50;;;;;;;0.43;0.20;;;9.80;99.90;;;;;;5302737;26;20022;-33
2024/04/17 12:29:00;;;;;;;2.20;0.10;;;9.40;99.90;;;;;;5296761;26;20083;-32
2024/04/17 12:31:25;;;;;;;2.25;0.10;;;9.00;99.90;;;;;;5328249;26;21092;-34
2024/04/17 12:33:51;;;;;;;1.48;0.20;;;8.70;99.90;;;;;;5301757;26;20037;-32
2024/04/17 12:36:17;;;;;;;2.80;0.70;;;8.40;99.90;;;;;;5324964;26;20011;-33
2024/04/17 12:38:42;;;;;;;1.10;0.20;;;8.10;99.90;;;;;;5311122;26;20005;-32
2024/04/17 12:41:08;;;;;;;1.50;0.20;;;7.70;99.90;;;;;;5313491;26;20037;-33
2024/04/17 12:43:36;;;;;;;1.55;0.20;;;7.30;99.90;;;;;;5327993;26;20014;-34
2024/04/17 12:46:03;;;;;;;1.83;0.28;;;7.00;99.90;;;;;;5302687;26;20468;-33
2024/04/17 12:48:28;;;;;;;1.98;0.30;;;6.70;99.90;;;;;;5320459;26;20008;-35
2024/04/17 12:50:54;;;;;;;1.38;0.30;;;6.60;99.90;;;;;;5310085;26;20002;-33